sensor_id;sensor_type;location;lat;lon;timestamp;P1;durP1;ratioP1;P2;durP2;ratioP2
19205;SDS011;59358;52.134;5.596;2023-08-12T00:01:18;13.10;;;8.55;;
19205;SDS011;59358;52.134;5.596;2023-08-12T00:03:46;16.25;;;9.38;;
19205;SDS011;59358;52.134;5.596;2023-08-12T00:06:13;13.90;;;10.13;;
19205;SDS011;59358;52.134;5.596;2023-08-12T00:08:40;17.10;;;10.70;;
19205;SDS011;59358;52.134;5.596;2023-08-12T00:11:07;16.08;;;11.52;;
19205;SDS011;59358;52.134;5.596;2023-08-12T00:13:33;15.32;;;10.38;;
19205;SDS011;59358;52.134;5.596;2023-08-12T00:16:02;17.83;;;10.95;;
19205;SDS011;59358;52.134;5.596;2023-08-12T00:18:29;16.27;;;10.75;;
19205;SDS011;59358;52.134;5.596;2023-08-12T00:21:03;21.33;;;12.18;;
19205;SDS011;59358;52.134;5.596;2023-08-12T00:23:35;16.77;;;11.05;;
19205;SDS011;59358;52.134;5.596;2023-08-12T00:26:04;16.10;;;10.43;;
19205;SDS011;59358;52.134;5.596;2023-08-12T00:28:31;18.65;;;12.02;;
19205;SDS011;59358;52.134;5.596;2023-08-12T00:30:58;20.42;;;12.68;;
19205;SDS011;59358;52.134;5.596;2023-08-12T00:33:26;26.17;;;13.00;;
19205;SDS011;59358;52.134;5.596;2023-08-12T00:35:53;16.63;;;10.95;;
19205;SDS011;59358;52.134;5.596;2023-08-12T00:38:19;20.58;;;11.95;;
19205;SDS011;59358;52.134;5.596;2023-08-12T00:40:46;18.02;;;11.98;;
19205;SDS011;59358;52.134;5.596;2023-08-12T00:43:13;19.23;;;13.13;;
19205;SDS011;59358;52.134;5.596;2023-08-12T00:45:40;19.48;;;12.43;;
19205;SDS011;59358;52.134;5.596;2023-08-12T00:48:08;21.00;;;12.35;;
19205;SDS011;59358;52.134;5.596;2023-08-12T00:50:37;22.52;;;12.38;;
19205;SDS011;59358;52.134;5.596;2023-08-12T00:53:05;21.50;;;14.43;;
19205;SDS011;59358;52.134;5.596;2023-08-12T00:55:33;24.13;;;15.25;;
19205;SDS011;59358;52.134;5.596;2023-08-12T00:58:00;22.55;;;14.73;;
19205;SDS011;59358;52.134;5.596;2023-08-12T01:00:28;21.13;;;14.80;;
19205;SDS011;59358;52.134;5.596;2023-08-12T01:02:56;21.58;;;13.98;;
19205;SDS011;59358;52.134;5.596;2023-08-12T01:05:23;24.92;;;16.02;;
19205;SDS011;59358;52.134;5.596;2023-08-12T01:07:51;27.00;;;16.52;;
19205;SDS011;59358;52.134;5.596;2023-08-12T01:10:19;23.88;;;15.77;;
19205;SDS011;59358;52.134;5.596;2023-08-12T01:12:50;23.27;;;15.50;;
19205;SDS011;59358;52.134;5.596;2023-08-12T01:15:20;22.08;;;16.35;;
19205;SDS011;59358;52.134;5.596;2023-08-12T01:17:49;24.67;;;17.08;;
19205;SDS011;59358;52.134;5.596;2023-08-12T01:20:17;30.63;;;18.60;;
19205;SDS011;59358;52.134;5.596;2023-08-12T01:22:49;22.67;;;15.35;;
19205;SDS011;59358;52.134;5.596;2023-08-12T01:25:24;22.65;;;16.67;;
19205;SDS011;59358;52.134;5.596;2023-08-12T01:27:51;24.27;;;16.73;;
19205;SDS011;59358;52.134;5.596;2023-08-12T01:30:18;27.20;;;17.15;;
19205;SDS011;59358;52.134;5.596;2023-08-12T01:32:49;26.65;;;16.98;;
19205;SDS011;59358;52.134;5.596;2023-08-12T01:35:20;24.45;;;16.58;;
19205;SDS011;59358;52.134;5.596;2023-08-12T01:37:50;25.67;;;17.58;;
19205;SDS011;59358;52.134;5.596;2023-08-12T01:40:19;27.55;;;17.40;;
19205;SDS011;59358;52.134;5.596;2023-08-12T01:42:47;27.27;;;18.88;;
19205;SDS011;59358;52.134;5.596;2023-08-12T01:45:15;27.38;;;19.05;;
19205;SDS011;59358;52.134;5.596;2023-08-12T01:47:44;26.92;;;18.85;;
19205;SDS011;59358;52.134;5.596;2023-08-12T01:50:11;28.48;;;18.38;;
19205;SDS011;59358;52.134;5.596;2023-08-12T01:52:38;32.45;;;20.63;;
19205;SDS011;59358;52.134;5.596;2023-08-12T01:55:05;33.80;;;21.35;;
19205;SDS011;59358;52.134;5.596;2023-08-12T01:57:32;28.67;;;19.00;;
19205;SDS011;59358;52.134;5.596;2023-08-12T02:00:01;27.83;;;19.17;;
19205;SDS011;59358;52.134;5.596;2023-08-12T02:02:28;26.70;;;19.02;;
19205;SDS011;59358;52.134;5.596;2023-08-12T02:04:55;27.10;;;19.75;;
19205;SDS011;59358;52.134;5.596;2023-08-12T02:07:21;31.73;;;19.17;;
19205;SDS011;59358;52.134;5.596;2023-08-12T02:09:48;32.50;;;20.52;;
19205;SDS011;59358;52.134;5.596;2023-08-12T02:12:15;29.45;;;19.15;;
19205;SDS011;59358;52.134;5.596;2023-08-12T02:14:42;29.73;;;19.88;;
19205;SDS011;59358;52.134;5.596;2023-08-12T02:17:10;27.35;;;20.95;;
19205;SDS011;59358;52.134;5.596;2023-08-12T02:19:37;34.67;;;21.45;;
19205;SDS011;59358;52.134;5.596;2023-08-12T02:22:04;37.80;;;21.70;;
19205;SDS011;59358;52.134;5.596;2023-08-12T02:24:31;30.52;;;20.77;;
19205;SDS011;59358;52.134;5.596;2023-08-12T02:26:58;28.63;;;19.13;;
19205;SDS011;59358;52.134;5.596;2023-08-12T02:29:25;31.83;;;20.67;;
19205;SDS011;59358;52.134;5.596;2023-08-12T02:31:52;31.50;;;21.58;;
19205;SDS011;59358;52.134;5.596;2023-08-12T02:34:20;32.13;;;20.25;;
19205;SDS011;59358;52.134;5.596;2023-08-12T02:36:47;32.70;;;20.95;;
19205;SDS011;59358;52.134;5.596;2023-08-12T02:39:14;33.25;;;20.88;;
19205;SDS011;59358;52.134;5.596;2023-08-12T02:41:40;38.13;;;22.50;;
19205;SDS011;59358;52.134;5.596;2023-08-12T02:44:07;36.35;;;20.75;;
19205;SDS011;59358;52.134;5.596;2023-08-12T02:46:34;28.02;;;20.50;;
19205;SDS011;59358;52.134;5.596;2023-08-12T02:49:01;32.35;;;21.73;;
19205;SDS011;59358;52.134;5.596;2023-08-12T02:51:29;34.53;;;22.33;;
19205;SDS011;59358;52.134;5.596;2023-08-12T02:53:56;31.65;;;21.00;;
19205;SDS011;59358;52.134;5.596;2023-08-12T02:56:24;34.33;;;21.75;;
19205;SDS011;59358;52.134;5.596;2023-08-12T02:58:51;30.10;;;21.30;;
19205;SDS011;59358;52.134;5.596;2023-08-12T03:01:17;37.15;;;21.95;;
19205;SDS011;59358;52.134;5.596;2023-08-12T03:03:44;38.58;;;23.10;;
19205;SDS011;59358;52.134;5.596;2023-08-12T03:06:11;36.92;;;24.48;;
19205;SDS011;59358;52.134;5.596;2023-08-12T03:08:40;36.63;;;23.33;;
19205;SDS011;59358;52.134;5.596;2023-08-12T03:11:07;35.70;;;24.38;;
19205;SDS011;59358;52.134;5.596;2023-08-12T03:13:33;38.70;;;24.27;;
19205;SDS011;59358;52.134;5.596;2023-08-12T03:16:00;37.33;;;26.00;;
19205;SDS011;59358;52.134;5.596;2023-08-12T03:18:27;34.45;;;24.55;;
19205;SDS011;59358;52.134;5.596;2023-08-12T03:20:54;40.80;;;27.27;;
19205;SDS011;59358;52.134;5.596;2023-08-12T03:23:21;36.67;;;24.30;;
19205;SDS011;59358;52.134;5.596;2023-08-12T03:25:49;39.28;;;24.08;;
19205;SDS011;59358;52.134;5.596;2023-08-12T03:28:16;39.85;;;25.80;;
19205;SDS011;59358;52.134;5.596;2023-08-12T03:30:49;35.47;;;24.80;;
19205;SDS011;59358;52.134;5.596;2023-08-12T03:33:17;41.67;;;24.83;;
19205;SDS011;59358;52.134;5.596;2023-08-12T03:35:44;39.92;;;26.15;;
19205;SDS011;59358;52.134;5.596;2023-08-12T03:38:11;36.95;;;24.92;;
19205;SDS011;59358;52.134;5.596;2023-08-12T03:40:39;39.72;;;24.52;;
19205;SDS011;59358;52.134;5.596;2023-08-12T03:43:07;39.88;;;25.08;;
19205;SDS011;59358;52.134;5.596;2023-08-12T03:45:38;40.30;;;26.20;;
19205;SDS011;59358;52.134;5.596;2023-08-12T03:48:06;34.65;;;25.08;;
19205;SDS011;59358;52.134;5.596;2023-08-12T03:50:33;36.80;;;26.52;;
19205;SDS011;59358;52.134;5.596;2023-08-12T03:53:00;40.85;;;27.75;;
19205;SDS011;59358;52.134;5.596;2023-08-12T03:55:29;39.40;;;27.92;;
19205;SDS011;59358;52.134;5.596;2023-08-12T03:57:57;38.72;;;29.17;;
19205;SDS011;59358;52.134;5.596;2023-08-12T04:00:25;42.05;;;28.65;;
19205;SDS011;59358;52.134;5.596;2023-08-12T04:02:52;44.63;;;30.08;;
19205;SDS011;59358;52.134;5.596;2023-08-12T04:05:19;41.92;;;28.73;;
19205;SDS011;59358;52.134;5.596;2023-08-12T04:07:46;41.97;;;28.65;;
19205;SDS011;59358;52.134;5.596;2023-08-12T04:10:13;40.65;;;29.13;;
19205;SDS011;59358;52.134;5.596;2023-08-12T04:12:40;41.90;;;29.17;;
19205;SDS011;59358;52.134;5.596;2023-08-12T04:15:08;44.20;;;29.85;;
19205;SDS011;59358;52.134;5.596;2023-08-12T04:17:36;37.70;;;27.33;;
19205;SDS011;59358;52.134;5.596;2023-08-12T04:20:05;46.88;;;30.08;;
19205;SDS011;59358;52.134;5.596;2023-08-12T04:22:32;42.20;;;29.70;;
19205;SDS011;59358;52.134;5.596;2023-08-12T04:24:59;43.67;;;30.50;;
19205;SDS011;59358;52.134;5.596;2023-08-12T04:27:27;38.03;;;28.65;;
19205;SDS011;59358;52.134;5.596;2023-08-12T04:29:54;40.22;;;28.70;;
19205;SDS011;59358;52.134;5.596;2023-08-12T04:32:20;42.25;;;28.55;;
19205;SDS011;59358;52.134;5.596;2023-08-12T04:34:49;44.10;;;27.77;;
19205;SDS011;59358;52.134;5.596;2023-08-12T04:37:15;35.88;;;27.17;;
19205;SDS011;59358;52.134;5.596;2023-08-12T04:39:42;42.95;;;30.05;;
19205;SDS011;59358;52.134;5.596;2023-08-12T04:42:10;40.22;;;29.75;;
19205;SDS011;59358;52.134;5.596;2023-08-12T04:44:37;48.08;;;30.33;;
19205;SDS011;59358;52.134;5.596;2023-08-12T04:47:04;40.65;;;28.70;;
19205;SDS011;59358;52.134;5.596;2023-08-12T04:49:31;42.03;;;28.65;;
19205;SDS011;59358;52.134;5.596;2023-08-12T04:51:59;43.17;;;28.92;;
19205;SDS011;59358;52.134;5.596;2023-08-12T04:54:26;37.90;;;27.73;;
19205;SDS011;59358;52.134;5.596;2023-08-12T04:56:53;33.03;;;26.38;;
19205;SDS011;59358;52.134;5.596;2023-08-12T04:59:21;35.80;;;25.85;;
19205;SDS011;59358;52.134;5.596;2023-08-12T05:01:48;39.53;;;25.60;;
19205;SDS011;59358;52.134;5.596;2023-08-12T05:04:14;36.50;;;25.42;;
19205;SDS011;59358;52.134;5.596;2023-08-12T05:06:42;35.40;;;24.52;;
19205;SDS011;59358;52.134;5.596;2023-08-12T05:09:10;32.85;;;23.35;;
19205;SDS011;59358;52.134;5.596;2023-08-12T05:11:37;31.40;;;22.50;;
19205;SDS011;59358;52.134;5.596;2023-08-12T05:14:04;31.13;;;22.00;;
19205;SDS011;59358;52.134;5.596;2023-08-12T05:16:31;33.80;;;23.08;;
19205;SDS011;59358;52.134;5.596;2023-08-12T05:18:58;32.55;;;23.95;;
19205;SDS011;59358;52.134;5.596;2023-08-12T05:21:25;28.75;;;22.98;;
19205;SDS011;59358;52.134;5.596;2023-08-12T05:23:52;31.17;;;22.80;;
19205;SDS011;59358;52.134;5.596;2023-08-12T05:26:20;33.20;;;23.05;;
19205;SDS011;59358;52.134;5.596;2023-08-12T05:28:47;39.58;;;23.52;;
19205;SDS011;59358;52.134;5.596;2023-08-12T05:31:14;37.70;;;23.85;;
19205;SDS011;59358;52.134;5.596;2023-08-12T05:33:41;32.95;;;24.45;;
19205;SDS011;59358;52.134;5.596;2023-08-12T05:36:08;28.10;;;23.05;;
19205;SDS011;59358;52.134;5.596;2023-08-12T05:38:35;30.83;;;23.58;;
19205;SDS011;59358;52.134;5.596;2023-08-12T05:41:01;32.97;;;24.13;;
19205;SDS011;59358;52.134;5.596;2023-08-12T05:43:33;34.45;;;24.52;;
19205;SDS011;59358;52.134;5.596;2023-08-12T05:46:00;31.38;;;24.00;;
19205;SDS011;59358;52.134;5.596;2023-08-12T05:48:27;35.75;;;23.90;;
19205;SDS011;59358;52.134;5.596;2023-08-12T05:50:54;32.63;;;22.58;;
19205;SDS011;59358;52.134;5.596;2023-08-12T05:53:21;33.65;;;23.75;;
19205;SDS011;59358;52.134;5.596;2023-08-12T05:55:49;34.25;;;23.50;;
19205;SDS011;59358;52.134;5.596;2023-08-12T05:58:16;36.97;;;24.77;;
19205;SDS011;59358;52.134;5.596;2023-08-12T06:00:44;36.00;;;22.33;;
19205;SDS011;59358;52.134;5.596;2023-08-12T06:03:11;31.52;;;22.55;;
19205;SDS011;59358;52.134;5.596;2023-08-12T06:05:39;30.77;;;23.88;;
19205;SDS011;59358;52.134;5.596;2023-08-12T06:08:07;30.33;;;22.02;;
19205;SDS011;59358;52.134;5.596;2023-08-12T06:10:33;30.38;;;22.85;;
19205;SDS011;59358;52.134;5.596;2023-08-12T06:13:00;29.95;;;23.27;;
19205;SDS011;59358;52.134;5.596;2023-08-12T06:15:27;36.13;;;21.73;;
19205;SDS011;59358;52.134;5.596;2023-08-12T06:17:55;26.98;;;19.08;;
19205;SDS011;59358;52.134;5.596;2023-08-12T06:20:22;24.50;;;16.33;;
19205;SDS011;59358;52.134;5.596;2023-08-12T06:22:49;20.52;;;14.48;;
19205;SDS011;59358;52.134;5.596;2023-08-12T06:25:16;21.58;;;14.40;;
19205;SDS011;59358;52.134;5.596;2023-08-12T06:27:43;16.38;;;13.38;;
19205;SDS011;59358;52.134;5.596;2023-08-12T06:30:11;21.05;;;14.45;;
19205;SDS011;59358;52.134;5.596;2023-08-12T06:32:38;21.20;;;15.18;;
19205;SDS011;59358;52.134;5.596;2023-08-12T06:35:08;22.00;;;15.88;;
19205;SDS011;59358;52.134;5.596;2023-08-12T06:37:35;24.38;;;16.05;;
19205;SDS011;59358;52.134;5.596;2023-08-12T06:40:03;21.00;;;16.65;;
19205;SDS011;59358;52.134;5.596;2023-08-12T06:42:30;22.55;;;16.48;;
19205;SDS011;59358;52.134;5.596;2023-08-12T06:44:57;24.38;;;18.65;;
19205;SDS011;59358;52.134;5.596;2023-08-12T06:47:25;27.83;;;20.42;;
19205;SDS011;59358;52.134;5.596;2023-08-12T06:49:54;29.98;;;22.02;;
19205;SDS011;59358;52.134;5.596;2023-08-12T06:52:23;29.98;;;23.00;;
19205;SDS011;59358;52.134;5.596;2023-08-12T06:54:50;37.08;;;23.25;;
19205;SDS011;59358;52.134;5.596;2023-08-12T06:57:17;32.63;;;24.23;;
19205;SDS011;59358;52.134;5.596;2023-08-12T06:59:44;31.88;;;22.52;;
19205;SDS011;59358;52.134;5.596;2023-08-12T07:02:11;31.67;;;23.98;;
19205;SDS011;59358;52.134;5.596;2023-08-12T07:04:38;33.08;;;24.00;;
19205;SDS011;59358;52.134;5.596;2023-08-12T07:07:05;34.70;;;24.20;;
19205;SDS011;59358;52.134;5.596;2023-08-12T07:09:33;32.75;;;22.70;;
19205;SDS011;59358;52.134;5.596;2023-08-12T07:12:00;27.33;;;21.50;;
19205;SDS011;59358;52.134;5.596;2023-08-12T07:14:28;29.15;;;21.67;;
19205;SDS011;59358;52.134;5.596;2023-08-12T07:16:54;27.92;;;21.88;;
19205;SDS011;59358;52.134;5.596;2023-08-12T07:19:21;22.70;;;18.15;;
19205;SDS011;59358;52.134;5.596;2023-08-12T07:21:49;26.77;;;20.05;;
19205;SDS011;59358;52.134;5.596;2023-08-12T07:24:16;29.63;;;20.38;;
19205;SDS011;59358;52.134;5.596;2023-08-12T07:26:44;26.63;;;19.55;;
19205;SDS011;59358;52.134;5.596;2023-08-12T07:29:11;24.33;;;19.67;;
19205;SDS011;59358;52.134;5.596;2023-08-12T07:31:38;24.17;;;17.52;;
19205;SDS011;59358;52.134;5.596;2023-08-12T07:34:05;22.80;;;16.58;;
19205;SDS011;59358;52.134;5.596;2023-08-12T07:36:32;21.05;;;17.48;;
19205;SDS011;59358;52.134;5.596;2023-08-12T07:38:59;22.55;;;15.02;;
19205;SDS011;59358;52.134;5.596;2023-08-12T07:41:26;20.38;;;15.35;;
19205;SDS011;59358;52.134;5.596;2023-08-12T07:43:54;16.40;;;12.60;;
19205;SDS011;59358;52.134;5.596;2023-08-12T07:46:21;19.92;;;14.05;;
19205;SDS011;59358;52.134;5.596;2023-08-12T07:48:48;16.77;;;13.23;;
19205;SDS011;59358;52.134;5.596;2023-08-12T07:51:15;16.58;;;12.00;;
19205;SDS011;59358;52.134;5.596;2023-08-12T07:53:42;14.95;;;12.20;;
19205;SDS011;59358;52.134;5.596;2023-08-12T07:56:09;15.90;;;12.38;;
19205;SDS011;59358;52.134;5.596;2023-08-12T07:58:35;15.45;;;12.65;;
19205;SDS011;59358;52.134;5.596;2023-08-12T08:01:04;16.73;;;12.30;;
19205;SDS011;59358;52.134;5.596;2023-08-12T08:03:33;11.70;;;10.07;;
19205;SDS011;59358;52.134;5.596;2023-08-12T08:05:59;14.32;;;10.98;;
19205;SDS011;59358;52.134;5.596;2023-08-12T08:08:26;12.07;;;10.80;;
19205;SDS011;59358;52.134;5.596;2023-08-12T08:10:53;12.15;;;10.70;;
19205;SDS011;59358;52.134;5.596;2023-08-12T08:13:20;11.95;;;10.35;;
19205;SDS011;59358;52.134;5.596;2023-08-12T08:15:47;13.35;;;10.82;;
19205;SDS011;59358;52.134;5.596;2023-08-12T08:18:15;10.80;;;9.70;;
19205;SDS011;59358;52.134;5.596;2023-08-12T08:20:42;10.45;;;9.13;;
19205;SDS011;59358;52.134;5.596;2023-08-12T08:23:09;10.13;;;9.13;;
19205;SDS011;59358;52.134;5.596;2023-08-12T08:25:36;8.80;;;7.90;;
19205;SDS011;59358;52.134;5.596;2023-08-12T08:28:03;10.48;;;9.27;;
19205;SDS011;59358;52.134;5.596;2023-08-12T08:30:30;9.55;;;8.57;;
19205;SDS011;59358;52.134;5.596;2023-08-12T08:32:57;9.43;;;8.52;;
19205;SDS011;59358;52.134;5.596;2023-08-12T08:35:25;10.57;;;8.13;;
19205;SDS011;59358;52.134;5.596;2023-08-12T08:37:52;9.95;;;9.02;;
19205;SDS011;59358;52.134;5.596;2023-08-12T08:40:19;7.75;;;7.05;;
19205;SDS011;59358;52.134;5.596;2023-08-12T08:42:46;6.30;;;5.75;;
19205;SDS011;59358;52.134;5.596;2023-08-12T08:45:17;7.05;;;6.35;;
19205;SDS011;59358;52.134;5.596;2023-08-12T08:47:44;6.85;;;6.25;;
19205;SDS011;59358;52.134;5.596;2023-08-12T08:50:13;16.38;;;6.22;;
19205;SDS011;59358;52.134;5.596;2023-08-12T08:52:42;7.13;;;6.53;;
19205;SDS011;59358;52.134;5.596;2023-08-12T08:55:09;6.50;;;5.80;;
19205;SDS011;59358;52.134;5.596;2023-08-12T08:57:37;6.05;;;5.45;;
19205;SDS011;59358;52.134;5.596;2023-08-12T09:00:05;5.78;;;5.18;;
19205;SDS011;59358;52.134;5.596;2023-08-12T09:02:34;4.63;;;4.22;;
19205;SDS011;59358;52.134;5.596;2023-08-12T09:05:03;4.75;;;4.20;;
19205;SDS011;59358;52.134;5.596;2023-08-12T09:07:32;3.75;;;3.45;;
19205;SDS011;59358;52.134;5.596;2023-08-12T09:10:01;3.47;;;3.17;;
19205;SDS011;59358;52.134;5.596;2023-08-12T09:12:30;3.95;;;3.65;;
19205;SDS011;59358;52.134;5.596;2023-08-12T09:14:57;3.92;;;3.50;;
19205;SDS011;59358;52.134;5.596;2023-08-12T09:17:24;3.10;;;2.88;;
19205;SDS011;59358;52.134;5.596;2023-08-12T09:19:51;3.22;;;3.00;;
19205;SDS011;59358;52.134;5.596;2023-08-12T09:22:18;3.10;;;2.90;;
19205;SDS011;59358;52.134;5.596;2023-08-12T09:24:45;3.30;;;2.90;;
19205;SDS011;59358;52.134;5.596;2023-08-12T09:27:16;3.78;;;3.00;;
19205;SDS011;59358;52.134;5.596;2023-08-12T09:29:44;2.28;;;2.17;;
19205;SDS011;59358;52.134;5.596;2023-08-12T09:32:11;3.97;;;2.70;;
19205;SDS011;59358;52.134;5.596;2023-08-12T09:34:45;2.17;;;1.95;;
19205;SDS011;59358;52.134;5.596;2023-08-12T09:37:13;2.65;;;2.45;;
19205;SDS011;59358;52.134;5.596;2023-08-12T09:39:41;2.35;;;2.05;;
19205;SDS011;59358;52.134;5.596;2023-08-12T09:42:08;3.42;;;2.20;;
19205;SDS011;59358;52.134;5.596;2023-08-12T09:44:37;3.38;;;2.20;;
19205;SDS011;59358;52.134;5.596;2023-08-12T09:47:05;3.33;;;2.40;;
19205;SDS011;59358;52.134;5.596;2023-08-12T09:49:33;3.47;;;2.13;;
19205;SDS011;59358;52.134;5.596;2023-08-12T09:52:01;2.72;;;2.40;;
19205;SDS011;59358;52.134;5.596;2023-08-12T09:54:28;4.97;;;2.13;;
19205;SDS011;59358;52.134;5.596;2023-08-12T09:56:58;4.57;;;3.03;;
19205;SDS011;59358;52.134;5.596;2023-08-12T09:59:27;5.88;;;2.75;;
19205;SDS011;59358;52.134;5.596;2023-08-12T10:01:58;5.28;;;3.20;;
19205;SDS011;59358;52.134;5.596;2023-08-12T10:04:29;3.90;;;2.70;;
19205;SDS011;59358;52.134;5.596;2023-08-12T10:07:01;7.68;;;3.47;;
19205;SDS011;59358;52.134;5.596;2023-08-12T10:09:29;6.88;;;2.72;;
19205;SDS011;59358;52.134;5.596;2023-08-12T10:11:57;5.47;;;3.20;;
19205;SDS011;59358;52.134;5.596;2023-08-12T10:14:24;7.07;;;3.30;;
19205;SDS011;59358;52.134;5.596;2023-08-12T10:16:52;7.03;;;3.28;;
19205;SDS011;59358;52.134;5.596;2023-08-12T10:19:21;5.70;;;3.05;;
19205;SDS011;59358;52.134;5.596;2023-08-12T10:21:50;7.25;;;3.03;;
19205;SDS011;59358;52.134;5.596;2023-08-12T10:24:21;7.70;;;3.38;;
19205;SDS011;59358;52.134;5.596;2023-08-12T10:26:49;5.57;;;3.00;;
19205;SDS011;59358;52.134;5.596;2023-08-12T10:29:17;5.38;;;3.55;;
19205;SDS011;59358;52.134;5.596;2023-08-12T10:31:43;4.05;;;2.95;;
19205;SDS011;59358;52.134;5.596;2023-08-12T10:34:17;8.05;;;3.28;;
19205;SDS011;59358;52.134;5.596;2023-08-12T10:36:46;5.68;;;3.03;;
19205;SDS011;59358;52.134;5.596;2023-08-12T10:39:13;7.22;;;3.05;;
19205;SDS011;59358;52.134;5.596;2023-08-12T10:41:46;6.53;;;3.47;;
19205;SDS011;59358;52.134;5.596;2023-08-12T10:44:17;6.45;;;3.05;;
19205;SDS011;59358;52.134;5.596;2023-08-12T10:46:50;6.88;;;3.47;;
19205;SDS011;59358;52.134;5.596;2023-08-12T10:49:18;9.77;;;3.30;;
19205;SDS011;59358;52.134;5.596;2023-08-12T10:51:48;8.75;;;2.83;;
19205;SDS011;59358;52.134;5.596;2023-08-12T10:54:16;9.48;;;3.22;;
19205;SDS011;59358;52.134;5.596;2023-08-12T10:57:05;6.80;;;3.17;;
19205;SDS011;59358;52.134;5.596;2023-08-12T10:59:56;25.45;;;5.97;;
19205;SDS011;59358;52.134;5.596;2023-08-12T11:02:27;4.70;;;2.35;;
19205;SDS011;59358;52.134;5.596;2023-08-12T11:05:00;6.93;;;2.53;;
19205;SDS011;59358;52.134;5.596;2023-08-12T11:07:33;5.50;;;2.35;;
19205;SDS011;59358;52.134;5.596;2023-08-12T11:10:03;6.65;;;2.15;;
19205;SDS011;59358;52.134;5.596;2023-08-12T11:12:33;9.70;;;2.78;;
19205;SDS011;59358;52.134;5.596;2023-08-12T11:15:02;7.03;;;2.50;;
19205;SDS011;59358;52.134;5.596;2023-08-12T11:17:33;5.28;;;2.08;;
19205;SDS011;59358;52.134;5.596;2023-08-12T11:20:01;7.45;;;2.40;;
19205;SDS011;59358;52.134;5.596;2023-08-12T11:22:30;5.35;;;2.28;;
19205;SDS011;59358;52.134;5.596;2023-08-12T11:25:02;5.32;;;2.53;;
19205;SDS011;59358;52.134;5.596;2023-08-12T11:27:35;4.53;;;2.72;;
19205;SDS011;59358;52.134;5.596;2023-08-12T11:30:06;8.40;;;2.75;;
19205;SDS011;59358;52.134;5.596;2023-08-12T11:32:35;8.63;;;2.95;;
19205;SDS011;59358;52.134;5.596;2023-08-12T11:35:03;5.03;;;2.55;;
19205;SDS011;59358;52.134;5.596;2023-08-12T11:37:30;7.35;;;2.83;;
19205;SDS011;59358;52.134;5.596;2023-08-12T11:40:01;6.55;;;2.60;;
19205;SDS011;59358;52.134;5.596;2023-08-12T11:42:29;7.28;;;3.05;;
19205;SDS011;59358;52.134;5.596;2023-08-12T11:44:56;4.57;;;2.53;;
19205;SDS011;59358;52.134;5.596;2023-08-12T11:47:22;6.82;;;2.70;;
19205;SDS011;59358;52.134;5.596;2023-08-12T11:49:51;7.43;;;2.80;;
19205;SDS011;59358;52.134;5.596;2023-08-12T11:52:18;8.52;;;2.25;;
19205;SDS011;59358;52.134;5.596;2023-08-12T11:54:47;6.80;;;2.75;;
19205;SDS011;59358;52.134;5.596;2023-08-12T11:57:15;6.78;;;2.65;;
19205;SDS011;59358;52.134;5.596;2023-08-12T11:59:42;6.28;;;2.25;;
19205;SDS011;59358;52.134;5.596;2023-08-12T12:02:10;6.75;;;2.72;;
19205;SDS011;59358;52.134;5.596;2023-08-12T12:04:37;9.02;;;2.40;;
19205;SDS011;59358;52.134;5.596;2023-08-12T12:07:16;6.15;;;2.47;;
19205;SDS011;59358;52.134;5.596;2023-08-12T12:09:44;4.65;;;2.00;;
19205;SDS011;59358;52.134;5.596;2023-08-12T12:12:12;9.32;;;2.90;;
19205;SDS011;59358;52.134;5.596;2023-08-12T12:14:39;4.80;;;2.20;;
19205;SDS011;59358;52.134;5.596;2023-08-12T12:17:07;8.05;;;5.10;;
19205;SDS011;59358;52.134;5.596;2023-08-12T12:19:35;7.32;;;2.95;;
19205;SDS011;59358;52.134;5.596;2023-08-12T12:22:02;5.60;;;2.92;;
19205;SDS011;59358;52.134;5.596;2023-08-12T12:24:30;6.68;;;3.00;;
19205;SDS011;59358;52.134;5.596;2023-08-12T12:26:57;6.47;;;3.03;;
19205;SDS011;59358;52.134;5.596;2023-08-12T12:29:26;8.27;;;2.55;;
19205;SDS011;59358;52.134;5.596;2023-08-12T12:31:52;7.22;;;2.50;;
19205;SDS011;59358;52.134;5.596;2023-08-12T12:34:19;4.40;;;2.22;;
19205;SDS011;59358;52.134;5.596;2023-08-12T12:36:47;6.22;;;2.35;;
19205;SDS011;59358;52.134;5.596;2023-08-12T12:39:14;4.90;;;2.50;;
19205;SDS011;59358;52.134;5.596;2023-08-12T12:41:42;8.98;;;5.28;;
19205;SDS011;59358;52.134;5.596;2023-08-12T12:44:09;6.18;;;2.50;;
19205;SDS011;59358;52.134;5.596;2023-08-12T12:46:37;4.43;;;1.85;;
19205;SDS011;59358;52.134;5.596;2023-08-12T12:49:04;10.55;;;2.90;;
19205;SDS011;59358;52.134;5.596;2023-08-12T12:51:31;6.05;;;2.25;;
19205;SDS011;59358;52.134;5.596;2023-08-12T12:53:58;7.63;;;2.47;;
19205;SDS011;59358;52.134;5.596;2023-08-12T12:56:25;6.20;;;2.30;;
19205;SDS011;59358;52.134;5.596;2023-08-12T12:58:52;5.85;;;1.92;;
19205;SDS011;59358;52.134;5.596;2023-08-12T13:01:19;7.35;;;2.42;;
19205;SDS011;59358;52.134;5.596;2023-08-12T13:03:47;4.70;;;1.88;;
19205;SDS011;59358;52.134;5.596;2023-08-12T13:06:14;5.75;;;2.05;;
19205;SDS011;59358;52.134;5.596;2023-08-12T13:08:41;5.40;;;1.70;;
19205;SDS011;59358;52.134;5.596;2023-08-12T13:11:08;5.20;;;1.90;;
19205;SDS011;59358;52.134;5.596;2023-08-12T13:13:34;7.03;;;2.05;;
19205;SDS011;59358;52.134;5.596;2023-08-12T13:16:01;7.05;;;2.13;;
19205;SDS011;59358;52.134;5.596;2023-08-12T13:18:28;7.80;;;2.60;;
19205;SDS011;59358;52.134;5.596;2023-08-12T13:20:56;9.63;;;2.72;;
19205;SDS011;59358;52.134;5.596;2023-08-12T13:23:23;5.82;;;2.05;;
19205;SDS011;59358;52.134;5.596;2023-08-12T13:25:51;7.13;;;2.30;;
19205;SDS011;59358;52.134;5.596;2023-08-12T13:28:18;6.68;;;2.45;;
19205;SDS011;59358;52.134;5.596;2023-08-12T13:30:45;7.15;;;3.55;;
19205;SDS011;59358;52.134;5.596;2023-08-12T13:33:12;8.60;;;2.40;;
19205;SDS011;59358;52.134;5.596;2023-08-12T13:35:39;5.60;;;2.08;;
19205;SDS011;59358;52.134;5.596;2023-08-12T13:38:07;7.38;;;2.47;;
19205;SDS011;59358;52.134;5.596;2023-08-12T13:40:34;7.45;;;2.33;;
19205;SDS011;59358;52.134;5.596;2023-08-12T13:43:01;5.63;;;2.25;;
19205;SDS011;59358;52.134;5.596;2023-08-12T13:45:28;6.70;;;2.00;;
19205;SDS011;59358;52.134;5.596;2023-08-12T13:47:55;9.15;;;2.47;;
19205;SDS011;59358;52.134;5.596;2023-08-12T13:50:22;4.75;;;2.20;;
19205;SDS011;59358;52.134;5.596;2023-08-12T13:52:49;8.10;;;2.20;;
19205;SDS011;59358;52.134;5.596;2023-08-12T13:55:17;8.55;;;2.60;;
19205;SDS011;59358;52.134;5.596;2023-08-12T13:57:44;8.30;;;2.75;;
19205;SDS011;59358;52.134;5.596;2023-08-12T14:00:11;6.85;;;2.40;;
19205;SDS011;59358;52.134;5.596;2023-08-12T14:02:39;9.38;;;2.20;;
19205;SDS011;59358;52.134;5.596;2023-08-12T14:05:07;7.88;;;2.35;;
19205;SDS011;59358;52.134;5.596;2023-08-12T14:07:35;6.60;;;2.38;;
19205;SDS011;59358;52.134;5.596;2023-08-12T14:10:03;4.43;;;2.15;;
19205;SDS011;59358;52.134;5.596;2023-08-12T14:12:31;8.88;;;2.58;;
19205;SDS011;59358;52.134;5.596;2023-08-12T14:14:58;6.57;;;2.30;;
19205;SDS011;59358;52.134;5.596;2023-08-12T14:17:25;7.40;;;2.97;;
19205;SDS011;59358;52.134;5.596;2023-08-12T14:19:52;5.35;;;2.08;;
19205;SDS011;59358;52.134;5.596;2023-08-12T14:22:19;6.55;;;2.45;;
19205;SDS011;59358;52.134;5.596;2023-08-12T14:24:46;7.00;;;2.65;;
19205;SDS011;59358;52.134;5.596;2023-08-12T14:27:14;7.57;;;2.08;;
19205;SDS011;59358;52.134;5.596;2023-08-12T14:29:43;5.03;;;2.15;;
19205;SDS011;59358;52.134;5.596;2023-08-12T14:32:10;9.95;;;2.60;;
19205;SDS011;59358;52.134;5.596;2023-08-12T14:34:37;6.25;;;2.58;;
19205;SDS011;59358;52.134;5.596;2023-08-12T14:37:04;11.40;;;2.90;;